Terminal Aerodrome Forecast
Issued by NWS Jackson, MS

Home | Current Version | Previous Version | Text Only | Print | Product List | Glossary On
Versions: 1 2 3 4 5 6 7 8 9 10 11 12 13 14 15 16
000
FTUS44 KJAN 201700
TAFMEI
TAF
KMEI 201720Z 2018/2118 08006KT P6SM SKC
     FM210300 00000KT P6SM SKC
     FM210800 18002KT 5SM BR SKC
     FM211400 18005KT P6SM SCT035 BKN200=

USA.gov is the U.S. government's official web portal to all federal, state and local government web resources and services.